createdAt,value
2018-12-06T00:00:29.490Z,4.90
2018-12-06T00:02:57.673Z,4.90
2018-12-06T00:05:25.860Z,4.90
2018-12-06T00:08:05.483Z,4.90
2018-12-06T00:10:33.721Z,4.80
2018-12-06T00:13:02.251Z,4.80
2018-12-06T00:15:30.579Z,4.70
2018-12-06T00:17:58.839Z,4.70
2018-12-06T00:20:27.118Z,4.90
2018-12-06T00:22:55.416Z,4.90
2018-12-06T00:25:23.764Z,4.90
2018-12-06T00:27:51.961Z,4.80
2018-12-06T00:30:36.060Z,4.90
2018-12-06T00:33:04.905Z,4.90
2018-12-06T00:35:33.250Z,5.00
2018-12-06T00:38:01.488Z,4.80
2018-12-06T00:40:29.716Z,4.80
2018-12-06T00:42:57.981Z,4.90
2018-12-06T00:45:26.354Z,4.80
2018-12-06T00:47:54.689Z,4.60
2018-12-06T00:50:22.876Z,4.80
2018-12-06T00:52:51.073Z,4.80
2018-12-06T00:55:19.265Z,4.80
2018-12-06T00:57:47.441Z,4.80
2018-12-06T01:00:15.805Z,4.70
2018-12-06T01:02:44.086Z,4.70
2018-12-06T01:05:12.357Z,4.80
2018-12-06T01:07:40.659Z,4.90
2018-12-06T01:10:09.229Z,4.90
2018-12-06T01:12:37.780Z,4.70
2018-12-06T01:15:06.945Z,4.80
2018-12-06T01:17:35.125Z,5.00
2018-12-06T01:20:04.641Z,4.90
2018-12-06T01:22:32.923Z,4.90
2018-12-06T01:25:02.198Z,4.90
2018-12-06T01:27:30.461Z,4.90
2018-12-06T01:29:58.726Z,4.80
2018-12-06T01:32:26.998Z,4.70
2018-12-06T01:34:55.176Z,4.70
2018-12-06T01:37:27.445Z,4.80
2018-12-06T01:39:56.231Z,4.80
2018-12-06T01:42:24.398Z,4.80
2018-12-06T01:44:52.606Z,4.90
2018-12-06T01:47:20.773Z,4.90
2018-12-06T01:49:48.958Z,5.00
2018-12-06T01:52:17.212Z,4.90
2018-12-06T01:54:45.401Z,4.90
2018-12-06T01:57:13.589Z,4.90
2018-12-06T01:59:42.550Z,5.00
2018-12-06T02:02:10.715Z,5.00
2018-12-06T02:04:39.021Z,5.00
2018-12-06T02:07:07.453Z,5.00
2018-12-06T02:09:35.596Z,5.00
2018-12-06T02:12:03.962Z,4.90
2018-12-06T02:14:32.237Z,4.80
2018-12-06T02:17:00.429Z,4.90
2018-12-06T02:19:28.614Z,5.00
2018-12-06T02:21:56.814Z,4.90
2018-12-06T02:24:25.009Z,4.80
2018-12-06T02:26:53.189Z,4.80
2018-12-06T02:29:21.360Z,4.80
2018-12-06T02:31:49.533Z,4.80
2018-12-06T02:34:17.725Z,4.90
2018-12-06T02:36:45.962Z,5.10
2018-12-06T02:39:15.032Z,5.00
2018-12-06T02:41:43.291Z,5.00
2018-12-06T02:44:11.544Z,5.00
2018-12-06T02:46:40.412Z,5.00
2018-12-06T02:49:08.676Z,5.00
2018-12-06T02:51:36.932Z,5.00
2018-12-06T02:54:05.120Z,5.00
2018-12-06T02:56:34.165Z,4.90
2018-12-06T02:59:03.568Z,4.80
2018-12-06T03:01:31.751Z,4.80
2018-12-06T03:03:59.996Z,5.00
2018-12-06T03:06:28.188Z,5.00
2018-12-06T03:08:56.437Z,5.00
2018-12-06T03:11:24.691Z,5.10
2018-12-06T03:13:52.881Z,5.00
2018-12-06T03:16:24.048Z,4.90
2018-12-06T03:18:52.416Z,5.00
2018-12-06T03:21:21.318Z,5.10
2018-12-06T03:23:50.514Z,5.10
2018-12-06T03:26:20.017Z,5.10
2018-12-06T03:28:48.179Z,5.00
2018-12-06T03:31:16.449Z,5.00
2018-12-06T03:33:44.718Z,5.00
2018-12-06T03:36:12.953Z,4.90
2018-12-06T03:38:41.209Z,5.00
2018-12-06T03:41:09.410Z,5.00
2018-12-06T03:43:37.618Z,4.90
2018-12-06T03:46:05.829Z,4.90
2018-12-06T03:48:34.321Z,4.80
2018-12-06T03:51:03.303Z,4.90
2018-12-06T03:53:31.689Z,5.00
2018-12-06T03:55:59.923Z,5.00
2018-12-06T03:58:28.240Z,5.00
2018-12-06T04:00:57.186Z,4.90
2018-12-06T04:03:25.388Z,4.90
2018-12-06T04:05:53.576Z,5.00
2018-12-06T04:08:21.955Z,5.00
2018-12-06T04:10:50.108Z,5.10
2018-12-06T04:13:20.265Z,5.10
2018-12-06T04:15:48.479Z,5.00
2018-12-06T04:18:17.447Z,5.00
2018-12-06T04:20:45.605Z,5.00
2018-12-06T04:23:13.846Z,5.10
2018-12-06T04:25:42.081Z,5.20
2018-12-06T04:28:10.324Z,5.20
2018-12-06T04:30:38.546Z,5.00
2018-12-06T04:33:06.797Z,5.00
2018-12-06T04:35:35.005Z,4.90
2018-12-06T04:38:03.285Z,5.00
2018-12-06T04:40:31.535Z,5.10
2018-12-06T04:42:59.767Z,5.10
2018-12-06T04:45:28.016Z,5.10
2018-12-06T04:47:56.285Z,5.20
2018-12-06T04:50:24.510Z,5.20
2018-12-06T04:52:53.061Z,5.10
2018-12-06T04:55:21.249Z,5.10
2018-12-06T04:57:49.428Z,5.20
2018-12-06T05:00:17.695Z,5.20
2018-12-06T05:02:46.868Z,5.20
2018-12-06T05:05:15.168Z,5.10
2018-12-06T05:07:43.369Z,5.10
2018-12-06T05:10:11.635Z,5.20
2018-12-06T05:12:39.824Z,5.20
2018-12-06T05:15:09.003Z,5.10
2018-12-06T05:17:38.192Z,5.20
2018-12-06T05:20:06.362Z,5.30
2018-12-06T05:22:34.520Z,5.40
2018-12-06T05:25:04.505Z,5.40
2018-12-06T05:27:32.695Z,5.40
2018-12-06T05:30:00.951Z,5.40
2018-12-06T05:32:29.133Z,5.40
2018-12-06T05:35:12.188Z,5.30
2018-12-06T05:37:40.376Z,5.50
2018-12-06T05:40:08.741Z,5.30
2018-12-06T05:42:36.987Z,5.30
2018-12-06T05:45:05.544Z,5.40
2018-12-06T05:47:33.792Z,5.40
2018-12-06T05:50:01.993Z,5.40
2018-12-06T05:52:30.156Z,5.50
2018-12-06T05:54:58.342Z,5.50
2018-12-06T05:57:26.612Z,5.30
2018-12-06T05:59:54.787Z,5.30
2018-12-06T06:02:23.924Z,5.30
2018-12-06T06:04:52.093Z,5.40
2018-12-06T06:07:20.274Z,5.50
2018-12-06T06:09:48.437Z,5.50
2018-12-06T06:12:16.608Z,5.50
2018-12-06T06:14:44.947Z,5.60
2018-12-06T06:17:13.131Z,5.50
2018-12-06T06:19:41.304Z,5.50
2018-12-06T06:22:09.482Z,5.50
2018-12-06T06:24:38.054Z,5.50
2018-12-06T06:27:06.301Z,5.50
2018-12-06T06:29:34.477Z,5.50
2018-12-06T06:32:02.740Z,5.60
2018-12-06T06:34:30.908Z,5.60
2018-12-06T06:36:59.089Z,5.50
2018-12-06T06:39:27.358Z,5.50
2018-12-06T06:41:55.528Z,5.50
2018-12-06T06:44:23.708Z,5.50
2018-12-06T06:46:51.877Z,5.50
2018-12-06T06:49:20.057Z,5.50
2018-12-06T06:51:48.313Z,5.60
2018-12-06T06:54:16.572Z,5.60
2018-12-06T06:56:44.742Z,5.70
2018-12-06T06:59:13.461Z,5.60
2018-12-06T07:01:42.812Z,5.50
2018-12-06T07:04:11.009Z,5.60
2018-12-06T07:06:39.205Z,5.60
2018-12-06T07:09:08.257Z,5.60
2018-12-06T07:11:36.552Z,5.60
2018-12-06T07:14:04.990Z,5.70
2018-12-06T07:16:33.172Z,5.70
2018-12-06T07:19:01.332Z,5.60
2018-12-06T07:21:29.997Z,5.60
2018-12-06T07:24:00.542Z,5.60
2018-12-06T07:26:29.563Z,5.60
2018-12-06T07:28:57.808Z,5.60
2018-12-06T07:31:26.048Z,5.60
2018-12-06T07:33:54.230Z,5.60
2018-12-06T07:36:22.478Z,5.60
2018-12-06T07:38:50.648Z,5.60
2018-12-06T07:41:18.834Z,5.70
2018-12-06T07:43:47.341Z,5.90
2018-12-06T07:46:15.492Z,5.80
2018-12-06T07:48:44.452Z,5.80
2018-12-06T07:51:12.699Z,5.80
2018-12-06T07:53:40.954Z,5.90
2018-12-06T07:56:10.105Z,5.80
2018-12-06T07:58:38.269Z,5.80
2018-12-06T08:01:06.465Z,5.90
2018-12-06T08:03:34.661Z,5.90
2018-12-06T08:06:02.919Z,6.00
2018-12-06T08:08:31.694Z,6.00
2018-12-06T08:10:59.944Z,6.00
2018-12-06T08:13:28.119Z,6.10
2018-12-06T08:15:56.296Z,6.10
2018-12-06T08:18:24.909Z,6.20
2018-12-06T08:20:53.277Z,6.20
2018-12-06T08:23:21.913Z,6.30
2018-12-06T08:25:50.057Z,6.20
2018-12-06T08:28:19.310Z,6.20
2018-12-06T08:30:50.494Z,6.30
2018-12-06T08:33:18.730Z,6.30
2018-12-06T08:35:46.992Z,6.40
2018-12-06T08:38:15.437Z,6.50
2018-12-06T08:40:43.578Z,6.40
2018-12-06T08:43:11.756Z,6.30
2018-12-06T08:45:40.145Z,6.30
2018-12-06T08:48:08.311Z,6.30
2018-12-06T08:50:36.568Z,6.40
2018-12-06T08:53:04.820Z,6.50
2018-12-06T08:55:34.076Z,6.50
2018-12-06T08:58:02.308Z,6.60
2018-12-06T09:00:30.656Z,6.50
2018-12-06T09:02:58.827Z,6.40
2018-12-06T09:05:27.094Z,6.50
2018-12-06T09:07:56.208Z,6.60
2018-12-06T09:10:27.205Z,6.60
2018-12-06T09:12:55.472Z,6.60
2018-12-06T09:15:23.644Z,6.50
2018-12-06T09:17:51.977Z,6.70
2018-12-06T09:20:21.643Z,6.70
2018-12-06T09:22:49.865Z,6.70
2018-12-06T09:25:21.283Z,6.50
2018-12-06T09:27:48.192Z,6.50
2018-12-06T09:30:16.440Z,6.40
2018-12-06T09:32:44.618Z,6.50
2018-12-06T09:35:12.952Z,6.60
2018-12-06T09:37:41.139Z,6.60
2018-12-06T09:40:09.526Z,6.70
2018-12-06T09:42:37.801Z,6.60
2018-12-06T09:45:07.172Z,6.60
2018-12-06T09:47:35.364Z,6.60
2018-12-06T09:50:04.212Z,6.60
2018-12-06T09:52:32.429Z,6.70
2018-12-06T09:55:00.608Z,6.60
2018-12-06T09:57:28.813Z,6.80
2018-12-06T09:59:57.936Z,6.70
2018-12-06T10:02:26.100Z,6.80
2018-12-06T10:04:54.297Z,6.70
2018-12-06T10:07:23.567Z,6.90
2018-12-06T10:09:51.772Z,7.00
2018-12-06T10:12:19.949Z,7.10
2018-12-06T10:14:48.211Z,7.30
2018-12-06T10:17:16.520Z,7.10
2018-12-06T10:19:44.884Z,7.10
2018-12-06T10:22:13.196Z,7.00
2018-12-06T10:24:41.414Z,7.20
2018-12-06T10:27:10.627Z,7.00
2018-12-06T10:29:38.839Z,6.90
2018-12-06T10:32:07.067Z,7.00
2018-12-06T10:34:35.285Z,7.00
2018-12-06T10:37:04.226Z,7.00
2018-12-06T10:39:32.502Z,7.20
2018-12-06T10:42:00.723Z,7.20
2018-12-06T10:44:30.406Z,7.20
2018-12-06T10:46:59.751Z,7.30
2018-12-06T10:49:30.692Z,7.20
2018-12-06T10:51:58.882Z,7.20
2018-12-06T10:54:27.086Z,7.50
2018-12-06T10:56:56.258Z,7.60
2018-12-06T10:59:24.455Z,7.80
2018-12-06T11:01:58.815Z,7.80
2018-12-06T11:04:39.555Z,7.90
2018-12-06T11:07:07.930Z,8.20
2018-12-06T11:09:36.165Z,8.40
2018-12-06T11:12:06.367Z,8.60
2018-12-06T11:14:34.560Z,8.80
2018-12-06T11:17:02.746Z,8.80
2018-12-06T11:19:31.124Z,8.60
2018-12-06T11:22:00.787Z,8.20
2018-12-06T11:24:40.234Z,8.00
2018-12-06T11:27:21.132Z,8.00
2018-12-06T11:30:03.610Z,7.90
2018-12-06T11:32:43.640Z,7.90
2018-12-06T11:35:24.952Z,7.90
2018-12-06T11:38:01.963Z,8.00
2018-12-06T11:40:41.533Z,8.10
2018-12-06T11:43:09.754Z,8.30
2018-12-06T11:45:38.265Z,8.30
2018-12-06T11:48:06.436Z,8.40
2018-12-06T11:50:34.732Z,8.50
2018-12-06T11:53:03.160Z,8.50
2018-12-06T11:55:31.348Z,8.50
2018-12-06T11:57:59.695Z,8.40
2018-12-06T12:00:27.870Z,8.40
2018-12-06T12:03:00.834Z,8.50
2018-12-06T12:05:33.637Z,8.50
2018-12-06T12:08:05.934Z,8.30
2018-12-06T12:10:42.547Z,8.30
2018-12-06T12:13:12.193Z,8.50
2018-12-06T12:15:41.005Z,8.30
2018-12-06T12:18:15.758Z,8.40
2018-12-06T12:20:44.116Z,8.40
2018-12-06T12:23:12.523Z,8.60
2018-12-06T12:25:40.704Z,8.90
2018-12-06T12:28:09.368Z,8.90
2018-12-06T12:30:38.198Z,9.00
2018-12-06T12:33:07.870Z,8.80
2018-12-06T12:35:40.568Z,8.90
2018-12-06T12:38:10.732Z,8.80
2018-12-06T12:40:38.968Z,8.70
2018-12-06T12:43:07.763Z,8.70
2018-12-06T12:45:36.106Z,8.80
2018-12-06T12:48:04.957Z,8.80
2018-12-06T12:50:33.591Z,8.50
2018-12-06T12:53:01.771Z,8.60
2018-12-06T12:55:30.053Z,8.80
2018-12-06T12:57:58.231Z,8.60
2018-12-06T13:00:26.404Z,8.50
2018-12-06T13:02:54.609Z,8.50
2018-12-06T13:05:22.830Z,8.50
2018-12-06T13:07:51.092Z,8.60
2018-12-06T13:10:19.288Z,8.60
2018-12-06T13:12:47.451Z,8.60
2018-12-06T13:15:15.793Z,8.70
2018-12-06T13:17:44.041Z,8.70
2018-12-06T13:20:12.321Z,8.60
2018-12-06T13:22:40.496Z,8.60
2018-12-06T13:25:08.792Z,8.60
2018-12-06T13:27:37.001Z,8.60
2018-12-06T13:30:05.831Z,8.60
2018-12-06T13:32:34.097Z,8.60
2018-12-06T13:35:04.381Z,8.60
2018-12-06T13:37:32.582Z,8.60
2018-12-06T13:40:00.965Z,8.60
2018-12-06T13:42:29.315Z,8.70
2018-12-06T13:44:58.504Z,8.60
2018-12-06T13:47:26.768Z,8.60
2018-12-06T13:49:54.956Z,8.70
2018-12-06T13:52:23.222Z,8.70
2018-12-06T13:54:51.409Z,8.80
2018-12-06T13:57:19.838Z,8.80
2018-12-06T13:59:50.040Z,8.80
2018-12-06T14:02:18.513Z,8.90
2018-12-06T14:04:46.661Z,8.90
2018-12-06T14:07:14.928Z,8.90
2018-12-06T14:09:43.111Z,9.00
2018-12-06T14:12:11.345Z,8.90
2018-12-06T14:14:40.325Z,9.00
2018-12-06T14:17:08.499Z,9.00
2018-12-06T14:19:36.867Z,9.10
2018-12-06T14:22:05.545Z,9.00
2018-12-06T14:24:33.775Z,9.00
2018-12-06T14:27:01.965Z,8.90
2018-12-06T14:29:30.257Z,9.00
2018-12-06T14:31:58.570Z,8.90
2018-12-06T14:34:27.721Z,8.90
2018-12-06T14:37:02.085Z,8.90
2018-12-06T14:39:26.177Z,8.90
2018-12-06T14:41:54.369Z,9.00
2018-12-06T14:44:22.675Z,9.00
2018-12-06T14:46:50.970Z,9.00
2018-12-06T14:49:19.168Z,9.00
2018-12-06T14:51:47.430Z,9.00
2018-12-06T14:54:15.663Z,9.00
2018-12-06T14:56:43.851Z,9.00
2018-12-06T14:59:12.022Z,9.10
2018-12-06T15:01:40.380Z,9.00
2018-12-06T15:04:08.619Z,9.00
2018-12-06T15:06:37.790Z,9.00
2018-12-06T15:09:08.085Z,9.00
2018-12-06T15:11:36.265Z,9.00
2018-12-06T15:14:04.537Z,9.00
2018-12-06T15:16:32.808Z,9.00
2018-12-06T15:19:01.168Z,9.10
2018-12-06T15:21:29.407Z,9.00
2018-12-06T15:23:57.682Z,9.00
2018-12-06T15:26:26.015Z,9.00
2018-12-06T15:28:54.244Z,9.00
2018-12-06T15:31:22.492Z,9.00
2018-12-06T15:33:50.780Z,9.00
2018-12-06T15:36:19.115Z,8.90
2018-12-06T15:38:47.288Z,8.90
2018-12-06T15:41:15.461Z,9.00
2018-12-06T15:43:43.744Z,9.20
2018-12-06T15:46:12.004Z,9.40
2018-12-06T15:48:40.185Z,9.40
2018-12-06T15:51:08.365Z,9.40
2018-12-06T15:53:36.609Z,9.30
2018-12-06T15:56:04.933Z,9.20
2018-12-06T15:58:34.189Z,9.10
2018-12-06T16:01:02.425Z,9.10
2018-12-06T16:03:30.735Z,9.00
2018-12-06T16:05:59.010Z,9.00
2018-12-06T16:08:27.333Z,8.90
2018-12-06T16:10:55.616Z,8.80
2018-12-06T16:13:23.781Z,8.90
2018-12-06T16:15:52.054Z,8.80
2018-12-06T16:18:20.431Z,8.80
2018-12-06T16:20:48.899Z,8.80
2018-12-06T16:23:17.198Z,8.80
2018-12-06T16:25:45.774Z,8.80
2018-12-06T16:28:14.050Z,8.70
2018-12-06T16:30:42.761Z,8.80
2018-12-06T16:33:11.050Z,8.80
2018-12-06T16:35:39.232Z,8.70
2018-12-06T16:38:07.552Z,8.80
2018-12-06T16:40:35.773Z,8.80
2018-12-06T16:43:04.119Z,8.80
2018-12-06T16:45:32.297Z,8.80
2018-12-06T16:48:00.497Z,8.80
2018-12-06T16:50:28.697Z,8.90
2018-12-06T16:52:56.897Z,9.00
2018-12-06T16:55:25.089Z,9.00
2018-12-06T16:57:53.260Z,8.90
2018-12-06T17:00:21.444Z,8.90
2018-12-06T17:02:49.711Z,8.80
2018-12-06T17:05:18.919Z,8.90
2018-12-06T17:07:47.089Z,8.90
2018-12-06T17:10:15.355Z,8.90
2018-12-06T17:12:43.544Z,8.90
2018-12-06T17:15:11.832Z,9.00
2018-12-06T17:17:40.991Z,8.90
2018-12-06T17:20:09.359Z,8.90
2018-12-06T17:22:37.619Z,8.90
2018-12-06T17:25:06.829Z,9.00
2018-12-06T17:27:35.049Z,8.90
2018-12-06T17:30:05.378Z,8.90
2018-12-06T17:32:33.736Z,8.80
2018-12-06T17:35:01.922Z,8.80
2018-12-06T17:37:30.097Z,8.70
2018-12-06T17:39:58.285Z,8.70
2018-12-06T17:42:26.566Z,8.70
2018-12-06T17:44:54.766Z,8.60
2018-12-06T17:47:23.021Z,8.60
2018-12-06T17:49:51.324Z,8.60
2018-12-06T17:52:19.496Z,8.60
2018-12-06T17:54:47.793Z,8.50
2018-12-06T17:57:16.105Z,8.70
2018-12-06T17:59:44.283Z,8.60
2018-12-06T18:02:12.549Z,8.60
2018-12-06T18:04:40.842Z,8.70
2018-12-06T18:07:09.041Z,8.70
2018-12-06T18:09:37.233Z,8.70
2018-12-06T18:12:05.516Z,8.80
2018-12-06T18:14:33.829Z,8.80
2018-12-06T18:17:02.148Z,8.90
2018-12-06T18:19:30.794Z,8.90
2018-12-06T18:22:01.490Z,8.90
2018-12-06T18:24:29.812Z,8.90
2018-12-06T18:26:58.162Z,8.90
2018-12-06T18:29:28.319Z,9.00
2018-12-06T18:31:56.521Z,9.10
2018-12-06T18:34:24.757Z,9.10
2018-12-06T18:36:53.059Z,9.20
2018-12-06T18:39:22.332Z,9.20
2018-12-06T18:41:50.896Z,9.30
2018-12-06T18:44:20.304Z,9.20
2018-12-06T18:46:48.884Z,9.20
2018-12-06T18:49:17.137Z,9.20
2018-12-06T18:51:45.806Z,9.20
2018-12-06T18:54:14.249Z,9.20
2018-12-06T18:56:42.682Z,9.20
2018-12-06T18:59:11.338Z,9.20
2018-12-06T19:01:39.843Z,9.20
2018-12-06T19:04:08.773Z,9.30
2018-12-06T19:06:42.887Z,9.30
2018-12-06T20:17:20.039Z,9.60
2018-12-06T20:20:12.492Z,9.60
2018-12-06T20:28:54.253Z,9.50
2018-12-06T20:46:15.310Z,9.50
2018-12-06T20:49:01.600Z,9.50
2018-12-06T20:51:49.005Z,9.50
